Mexico, NY

10:00 PM EDT on April 20, 2015 (GMT -0400)
Western Oswego County | | Change Station
CLOSE
Current Station
Personal Weather Station
Location: Hannibal, NY
Elevation: 328 ft
Nearby Weather Stations

Elev 328 ft 43.36 °N, 76.60 °W | Updated 12 minutes ago

Overcast
Overcast
52.5 °F
Feels Like 52.5 °F
N
1.7
Wind Variable Wind from WNW

Today
High -- | Low -- °F
--% Chance of Precip.
Yesterday
High -- | Low -- °F
Precip. -- in
6:14 AM 7:53 PM
Waxing Crescent, 7% visible
Pressure 29.55 in
Visibility 4.0 miles
Clouds Scattered Clouds 5500 ft
Mostly Cloudy 7000 ft
Overcast 8000 ft
Dew Point 51 °F
Humidity 95%
Rainfall 0.36 in
Snow Depth Not available.
UV 0 out of 12
Pollen 3.70 out of 12
Air Quality Not available.
Flu Activity Widespread
METAR KFZY 210154Z AUTO 13008G15KT 4SM TSRA BR SCT055 BKN070 OVC080 12/09 A2955 RMK AO2 LTG DSNT S-W RAB34 TSB37 SLP007 P0010 T01170094

More Conditions Fewer Conditions

Pressure 29.55 in
Visibility 4.0 miles
Clouds Scattered Clouds 5500 ft
Mostly Cloudy 7000 ft
Overcast 8000 ft
Dew Point 51 °F
Humidity 95%
Rainfall 0.36 in
Snow Depth Not available.
UV 0 out of 12
Pollen 3.70 out of 12
Air Quality Not available.
Flu Activity Widespread
METAR KFZY 210154Z AUTO 13008G15KT 4SM TSRA BR SCT055 BKN070 OVC080 12/09 A2955 RMK AO2 LTG DSNT S-W RAB34 TSB37 SLP007 P0010 T01170094

More Conditions Fewer Conditions

10-Day Weather Forecast

Almanac

Astronomy

Apr. 20, 2015 Rise Set
Actual Time
Civil Twilight
Nautical Twilight
Astronomical Twilight
Moon
Length of Visible Light
Length of Day
Tomorrow will be .
, % of the Moon is Illuminated

Today's Extremes

State Highs State Lows

Community

WunderPhotos

Upload Photos

1,815,278 photos uploaded!

WunderBlogs® & News

Nearby

Air Quality

  Air Quality AQ Index Pollutant
Not available.

Snow Depth

Station Depth Elevation

Earthquake Activity

City Distance Mag. Time & Date
Minimum magnitude displayed is 2.5.

Coastal Water Temperatures

Place Temperature

Stations

Nearby Weather Stations

Station Location Temp. Windchill Dew Point Humidity Wind Precip. Elev Updated Type